Time;durP1;ratioP1;P1;durP2;ratioP2;P2;SDS_P1;SDS_P2;PMS_P1;PMS_P2;Temp;Humidity;BMP_temperature;BMP_pressure;BME280_temperature;BME280_humidity;BME280_pressure;Samples;Min_cycle;Max_cycle;Signal;HPM_P1;HPM_P2
2023/07/10 00:00:51;;;;;;;21.40;16.58;;;;;;;;;;5096331;28;20124;-84
2023/07/10 00:03:18;;;;;;;15.90;14.27;;;;;;;;;;5113454;28;20051;-83
2023/07/10 00:05:45;;;;;;;21.95;16.67;;;;;;;;;;5095951;28;20059;-83
2023/07/10 00:08:11;;;;;;;16.20;14.40;;;;;;;;;;5113309;28;20039;-82
2023/07/10 00:10:37;;;;;;;14.30;13.00;;;;;;;;;;5096195;28;20134;-82
2023/07/10 00:13:04;;;;;;;17.95;13.68;;;;;;;;;;5113178;28;20059;-82
2023/07/10 00:15:30;;;;;;;20.73;15.38;;;;;;;;;;5112803;28;20051;-82
2023/07/10 00:17:56;;;;;;;15.18;13.70;;;;;;;;;;5114379;28;20050;-82
2023/07/10 00:20:23;;;;;;;19.40;16.85;;;;;;;;;;5112877;28;20476;-81
2023/07/10 00:22:50;;;;;;;29.95;19.95;;;;;;;;;;5112485;28;20039;-81
2023/07/10 00:25:17;;;;;;;17.40;14.98;;;;;;;;;;5112935;28;20050;-81
2023/07/10 00:27:47;;;;;;;18.05;16.17;;;;;;;;;;5112942;28;20052;-80
2023/07/10 00:30:18;;;;;;;52.92;27.90;;;;;;;;;;5113853;28;20126;-81
2023/07/10 00:32:44;;;;;;;26.55;21.92;;;;;;;;;;5112679;28;20127;-80
2023/07/10 00:35:16;;;;;;;19.00;15.98;;;;;;;;;;5112731;28;20378;-81
2023/07/10 00:37:42;;;;;;;20.48;16.60;;;;;;;;;;5095854;28;20051;-81
2023/07/10 00:40:18;;;;;;;22.77;18.58;;;;;;;;;;5116125;28;20048;-80
2023/07/10 00:42:46;;;;;;;26.40;18.60;;;;;;;;;;5099737;28;20155;-80
2023/07/10 00:45:13;;;;;;;18.25;16.33;;;;;;;;;;5117185;28;20126;-80
2023/07/10 00:47:40;;;;;;;27.42;21.67;;;;;;;;;;5116835;28;20075;-80
2023/07/10 00:50:13;;;;;;;26.67;19.17;;;;;;;;;;5116784;28;20090;-81
2023/07/10 00:52:42;;;;;;;27.42;19.00;;;;;;;;;;5117782;28;20047;-81
2023/07/10 00:55:23;;;;;;;17.67;15.98;;;;;;;;;;5116662;28;20134;-80
2023/07/10 00:57:54;;;;;;;26.92;19.23;;;;;;;;;;5116826;28;20051;-80
2023/07/10 01:00:23;;;;;;;15.65;14.25;;;;;;;;;;5116540;28;20086;-80
2023/07/10 01:02:50;;;;;;;20.33;18.20;;;;;;;;;;5097996;28;20161;-80
2023/07/10 01:05:17;;;;;;;14.70;13.30;;;;;;;;;;5099372;28;20066;-80
2023/07/10 01:07:46;;;;;;;14.65;13.32;;;;;;;;;;5115892;28;20103;-81
2023/07/10 01:10:12;;;;;;;15.90;14.45;;;;;;;;;;5116821;28;20125;-81
2023/07/10 01:12:40;;;;;;;15.63;14.13;;;;;;;;;;5116255;28;20156;-80
2023/07/10 01:15:07;;;;;;;14.82;13.32;;;;;;;;;;5099445;28;20047;-80
2023/07/10 01:17:33;;;;;;;15.93;14.32;;;;;;;;;;5116185;28;20060;-80
2023/07/10 01:20:02;;;;;;;14.73;13.45;;;;;;;;;;5117284;28;20048;-81
2023/07/10 01:22:29;;;;;;;13.52;12.20;;;;;;;;;;5115992;28;20130;-80
2023/07/10 01:24:55;;;;;;;16.13;14.77;;;;;;;;;;5117215;28;20100;-80
2023/07/10 01:27:22;;;;;;;15.25;13.65;;;;;;;;;;5117318;28;20055;-80
2023/07/10 01:30:04;;;;;;;17.98;15.93;;;;;;;;;;5116497;28;20090;-80
2023/07/10 01:32:30;;;;;;;17.63;15.82;;;;;;;;;;5100086;28;20078;-79
2023/07/10 01:34:59;;;;;;;13.98;12.68;;;;;;;;;;5116045;28;20040;-80
2023/07/10 01:37:25;;;;;;;14.68;13.38;;;;;;;;;;5115902;28;20399;-80
2023/07/10 01:39:52;;;;;;;17.30;15.50;;;;;;;;;;5098600;28;20082;-80
2023/07/10 01:42:19;;;;;;;15.80;14.18;;;;;;;;;;5116141;28;20078;-79
2023/07/10 01:44:46;;;;;;;13.82;12.73;;;;;;;;;;5116007;28;20048;-79
2023/07/10 01:47:13;;;;;;;21.63;17.85;;;;;;;;;;5115694;28;20126;-80
2023/07/10 01:49:39;;;;;;;16.38;14.88;;;;;;;;;;5115836;28;20047;-80
2023/07/10 01:52:07;;;;;;;18.45;16.55;;;;;;;;;;5114630;28;20055;-80
2023/07/10 01:54:33;;;;;;;16.63;14.98;;;;;;;;;;5115773;28;20047;-80
2023/07/10 01:56:59;;;;;;;18.35;16.60;;;;;;;;;;5116993;28;20048;-80
2023/07/10 01:59:25;;;;;;;15.48;14.15;;;;;;;;;;5115066;28;20039;-80
2023/07/10 02:01:53;;;;;;;17.50;15.90;;;;;;;;;;5115228;28;20512;-80
2023/07/10 02:04:19;;;;;;;16.77;15.38;;;;;;;;;;5116736;28;20051;-80
2023/07/10 02:06:45;;;;;;;24.80;19.10;;;;;;;;;;5098350;28;20130;-81
2023/07/10 02:09:12;;;;;;;20.85;18.58;;;;;;;;;;5115236;28;20050;-80
2023/07/10 02:11:38;;;;;;;21.50;19.38;;;;;;;;;;5115221;28;20044;-80
2023/07/10 02:14:08;;;;;;;23.73;21.33;;;;;;;;;;5115371;28;20060;-80
2023/07/10 02:16:34;;;;;;;22.33;20.02;;;;;;;;;;5116346;28;20039;-80
2023/07/10 02:19:01;;;;;;;22.10;19.90;;;;;;;;;;5114760;28;20047;-80
2023/07/10 02:21:27;;;;;;;25.52;21.13;;;;;;;;;;5114781;28;20050;-80
2023/07/10 02:23:53;;;;;;;22.08;19.90;;;;;;;;;;5115179;28;20047;-80
2023/07/10 02:26:20;;;;;;;24.83;22.15;;;;;;;;;;5116110;28;20374;-80
2023/07/10 02:28:46;;;;;;;39.45;28.20;;;;;;;;;;5115143;28;20047;-80
2023/07/10 02:31:12;;;;;;;28.98;24.13;;;;;;;;;;5115012;28;20430;-80
2023/07/10 02:33:38;;;;;;;37.47;27.13;;;;;;;;;;5114853;28;20066;-80
2023/07/10 02:36:04;;;;;;;27.45;23.08;;;;;;;;;;5114503;28;20523;-80
2023/07/10 02:38:30;;;;;;;25.05;22.55;;;;;;;;;;5115162;28;20044;-81
2023/07/10 02:40:57;;;;;;;26.08;23.38;;;;;;;;;;5098563;28;20393;-80
2023/07/10 02:43:23;;;;;;;26.00;23.25;;;;;;;;;;5097579;28;20048;-80
2023/07/10 02:45:49;;;;;;;36.03;27.38;;;;;;;;;;5114779;28;20112;-80
2023/07/10 02:48:15;;;;;;;26.02;23.45;;;;;;;;;;5080787;28;20485;-80
2023/07/10 02:50:42;;;;;;;30.77;24.67;;;;;;;;;;5115704;28;20044;-80
2023/07/10 02:53:08;;;;;;;32.53;28.08;;;;;;;;;;5114007;28;20047;-80
2023/07/10 02:55:34;;;;;;;27.60;23.60;;;;;;;;;;5114686;28;20130;-81
2023/07/10 02:58:01;;;;;;;26.73;24.02;;;;;;;;;;5114271;28;20510;-80
2023/07/10 03:00:27;;;;;;;36.60;28.45;;;;;;;;;;5114436;28;20082;-80
2023/07/10 03:02:56;;;;;;;40.80;31.45;;;;;;;;;;5114030;28;20056;-81
2023/07/10 03:05:25;;;;;;;49.75;34.78;;;;;;;;;;5114176;28;20090;-80
2023/07/10 03:07:52;;;;;;;26.83;23.95;;;;;;;;;;5097307;28;20545;-80
2023/07/10 03:10:19;;;;;;;26.77;24.02;;;;;;;;;;5114291;28;20047;-81
2023/07/10 03:12:45;;;;;;;28.10;25.20;;;;;;;;;;5097148;28;20090;-81
2023/07/10 03:15:11;;;;;;;43.05;28.92;;;;;;;;;;5115131;28;20398;-81
2023/07/10 03:17:37;;;;;;;30.27;26.98;;;;;;;;;;5113938;28;20048;-81
2023/07/10 03:20:04;;;;;;;33.05;26.45;;;;;;;;;;5113490;28;20393;-80
2023/07/10 03:22:30;;;;;;;27.83;25.17;;;;;;;;;;5113352;28;20473;-80
2023/07/10 03:24:56;;;;;;;33.55;29.42;;;;;;;;;;5113757;28;20488;-81
2023/07/10 03:27:23;;;;;;;27.35;24.73;;;;;;;;;;5113593;28;20047;-80
2023/07/10 03:29:49;;;;;;;48.90;34.83;;;;;;;;;;5113977;28;20082;-81
2023/07/10 03:32:15;;;;;;;25.33;23.00;;;;;;;;;;5114803;28;20051;-80
2023/07/10 03:34:41;;;;;;;25.88;23.35;;;;;;;;;;5096643;28;20051;-80
2023/07/10 03:37:08;;;;;;;27.67;25.00;;;;;;;;;;5115174;28;20120;-81
2023/07/10 03:39:35;;;;;;;25.42;23.13;;;;;;;;;;5113431;28;20476;-81
2023/07/10 03:42:01;;;;;;;26.42;23.98;;;;;;;;;;5113215;28;20497;-81
2023/07/10 03:44:27;;;;;;;24.95;22.90;;;;;;;;;;5114537;28;20044;-81
2023/07/10 03:46:53;;;;;;;25.85;23.30;;;;;;;;;;5080358;28;20051;-81
2023/07/10 03:49:19;;;;;;;24.83;22.55;;;;;;;;;;5113302;28;20484;-82
2023/07/10 03:51:45;;;;;;;22.33;20.50;;;;;;;;;;5112622;28;20389;-81
2023/07/10 03:54:13;;;;;;;24.27;22.00;;;;;;;;;;5113017;28;20447;-81
2023/07/10 03:56:39;;;;;;;24.55;22.25;;;;;;;;;;5113203;28;20178;-81
2023/07/10 03:59:07;;;;;;;31.83;24.88;;;;;;;;;;5113061;28;20048;-81
2023/07/10 04:01:33;;;;;;;29.02;25.75;;;;;;;;;;5114016;28;20119;-82
2023/07/10 04:04:00;;;;;;;23.67;21.45;;;;;;;;;;5114301;28;20113;-81
2023/07/10 04:06:26;;;;;;;33.72;28.52;;;;;;;;;;5113343;28;20044;-81
2023/07/10 04:08:52;;;;;;;25.50;22.73;;;;;;;;;;5113982;28;20040;-81
2023/07/10 04:11:19;;;;;;;22.60;20.55;;;;;;;;;;5096419;28;20048;-81
2023/07/10 04:13:46;;;;;;;26.65;23.77;;;;;;;;;;5113055;28;20086;-81
2023/07/10 04:16:29;;;;;;;19.20;17.50;;;;;;;;;;5113754;28;20100;-81
2023/07/10 04:18:55;;;;;;;24.10;21.80;;;;;;;;;;5113877;28;20122;-81
2023/07/10 04:21:26;;;;;;;20.08;18.10;;;;;;;;;;5114007;28;20393;-81
2023/07/10 04:23:52;;;;;;;20.42;18.40;;;;;;;;;;5112491;28;20482;-83
2023/07/10 04:26:19;;;;;;;22.25;20.08;;;;;;;;;;5112507;28;20051;-81
2023/07/10 04:28:46;;;;;;;19.80;17.98;;;;;;;;;;5113921;28;20048;-81
2023/07/10 04:31:12;;;;;;;19.77;18.02;;;;;;;;;;5112750;28;20431;-81
2023/07/10 04:33:38;;;;;;;17.85;16.35;;;;;;;;;;5095931;28;20052;-81
2023/07/10 04:36:04;;;;;;;18.13;16.58;;;;;;;;;;5112623;28;20091;-82
2023/07/10 04:38:31;;;;;;;24.05;20.67;;;;;;;;;;5096580;28;20039;-81
2023/07/10 04:40:57;;;;;;;22.00;19.67;;;;;;;;;;5112546;28;20056;-81
2023/07/10 04:43:24;;;;;;;18.13;16.50;;;;;;;;;;5112783;28;20054;-81
2023/07/10 04:45:53;;;;;;;19.38;17.63;;;;;;;;;;5112574;28;20085;-81
2023/07/10 04:48:19;;;;;;;15.30;13.82;;;;;;;;;;5095671;28;20035;-81
2023/07/10 04:50:48;;;;;;;15.60;14.27;;;;;;;;;;5079576;28;20449;-81
2023/07/10 04:53:18;;;;;;;15.50;13.93;;;;;;;;;;5095377;28;20552;-81
2023/07/10 04:55:45;;;;;;;13.73;12.55;;;;;;;;;;5112463;28;20043;-81
2023/07/10 04:58:11;;;;;;;13.63;12.43;;;;;;;;;;5111953;28;20485;-82
2023/07/10 05:00:37;;;;;;;12.82;11.60;;;;;;;;;;5112628;28;20048;-81
2023/07/10 05:03:04;;;;;;;11.93;10.57;;;;;;;;;;5112207;28;20492;-81
2023/07/10 05:05:30;;;;;;;10.52;9.15;;;;;;;;;;5112591;28;20039;-81
2023/07/10 05:07:57;;;;;;;8.93;8.23;;;;;;;;;;5095446;28;20047;-81
2023/07/10 05:10:23;;;;;;;8.98;8.27;;;;;;;;;;5112497;28;20550;-81
2023/07/10 05:12:50;;;;;;;6.10;5.50;;;;;;;;;;5095398;28;20054;-81
2023/07/10 05:15:16;;;;;;;4.97;4.47;;;;;;;;;;5112785;28;20385;-86
2023/07/10 05:17:42;;;;;;;4.75;3.97;;;;;;;;;;5112461;28;20086;-82
2023/07/10 05:20:09;;;;;;;5.90;4.20;;;;;;;;;;5095153;28;20039;-82
2023/07/10 05:22:36;;;;;;;6.03;4.15;;;;;;;;;;5111984;28;20036;-82
2023/07/10 05:25:02;;;;;;;4.53;4.22;;;;;;;;;;5095440;28;20139;-82
2023/07/10 05:27:28;;;;;;;5.25;4.85;;;;;;;;;;5116097;28;20051;-82
2023/07/10 05:29:54;;;;;;;5.68;5.25;;;;;;;;;;5099049;28;20044;-81
2023/07/10 05:32:20;;;;;;;6.75;6.15;;;;;;;;;;5115961;28;20044;-82
2023/07/10 05:34:46;;;;;;;9.80;7.28;;;;;;;;;;5116067;28;20074;-81
2023/07/10 05:37:13;;;;;;;5.85;5.35;;;;;;;;;;5116987;28;20047;-82
2023/07/10 05:39:39;;;;;;;6.45;5.85;;;;;;;;;;5098690;28;20043;-82
2023/07/10 05:42:07;;;;;;;5.93;5.28;;;;;;;;;;5099045;28;20450;-82
2023/07/10 05:44:33;;;;;;;5.00;4.57;;;;;;;;;;5115628;28;20048;-82
2023/07/10 05:46:59;;;;;;;5.63;4.40;;;;;;;;;;5116003;28;20369;-82
2023/07/10 05:49:25;;;;;;;5.50;4.93;;;;;;;;;;5098989;28;20044;-82
2023/07/10 05:51:52;;;;;;;5.05;4.03;;;;;;;;;;5115365;28;20066;-82
2023/07/10 05:54:22;;;;;;;4.13;3.10;;;;;;;;;;5115706;28;20040;-81
2023/07/10 05:56:48;;;;;;;6.03;3.03;;;;;;;;;;5098652;28;20081;-82
2023/07/10 05:59:14;;;;;;;3.97;3.38;;;;;;;;;;5099210;28;20093;-82
2023/07/10 06:01:40;;;;;;;3.88;3.58;;;;;;;;;;5115173;28;20088;-83
2023/07/10 06:04:07;;;;;;;4.30;4.00;;;;;;;;;;5115773;28;20055;-82
2023/07/10 06:06:33;;;;;;;3.97;3.58;;;;;;;;;;5116557;28;20520;-82
2023/07/10 06:08:59;;;;;;;4.90;3.50;;;;;;;;;;5115393;28;20460;-83
2023/07/10 06:11:25;;;;;;;6.35;3.80;;;;;;;;;;5115312;28;20047;-82
2023/07/10 06:13:51;;;;;;;4.28;3.72;;;;;;;;;;5115102;28;20090;-82
2023/07/10 06:16:18;;;;;;;4.00;3.20;;;;;;;;;;5081624;28;20083;-82
2023/07/10 06:18:44;;;;;;;3.83;3.28;;;;;;;;;;5114649;28;20079;-82
2023/07/10 06:21:10;;;;;;;4.47;3.20;;;;;;;;;;5098059;28;20043;-82
2023/07/10 06:23:37;;;;;;;3.05;2.75;;;;;;;;;;5097403;28;20043;-82
2023/07/10 06:26:03;;;;;;;3.80;2.45;;;;;;;;;;5099058;28;20556;-82
2023/07/10 06:28:30;;;;;;;6.50;2.67;;;;;;;;;;5114647;28;20043;-82
2023/07/10 06:30:58;;;;;;;5.82;1.75;;;;;;;;;;5115056;28;20499;-82
2023/07/10 06:33:24;;;;;;;3.92;1.92;;;;;;;;;;5114954;28;20066;-83
2023/07/10 06:35:50;;;;;;;4.00;1.88;;;;;;;;;;5098697;28;20073;-83
2023/07/10 06:38:16;;;;;;;3.75;1.70;;;;;;;;;;5113555;28;20043;-82
2023/07/10 06:40:43;;;;;;;4.70;1.70;;;;;;;;;;5097972;28;20050;-82
2023/07/10 06:43:09;;;;;;;4.88;1.45;;;;;;;;;;5097861;28;20560;-82
2023/07/10 06:45:35;;;;;;;3.58;1.35;;;;;;;;;;5113621;28;20047;-83
2023/07/10 06:48:01;;;;;;;3.03;1.45;;;;;;;;;;5114488;28;20052;-82
2023/07/10 06:50:27;;;;;;;4.45;1.38;;;;;;;;;;5097353;28;20047;-82
2023/07/10 06:52:53;;;;;;;3.50;1.67;;;;;;;;;;5080371;28;20063;-82
2023/07/10 06:55:19;;;;;;;2.35;0.90;;;;;;;;;;5114449;28;20389;-82
2023/07/10 06:57:46;;;;;;;4.90;1.27;;;;;;;;;;5097782;28;20435;-82
2023/07/10 07:00:13;;;;;;;1.98;0.80;;;;;;;;;;5114204;28;20128;-82
2023/07/10 07:02:39;;;;;;;3.00;0.70;;;;;;;;;;5114067;28;20059;-83
2023/07/10 07:05:06;;;;;;;3.08;0.88;;;;;;;;;;5097523;28;20465;-82
2023/07/10 07:07:33;;;;;;;5.57;0.63;;;;;;;;;;5114502;28;20048;-82
2023/07/10 07:09:59;;;;;;;4.55;0.70;;;;;;;;;;5114356;28;20055;-82
2023/07/10 07:12:25;;;;;;;3.92;0.93;;;;;;;;;;5114201;28;20045;-82
2023/07/10 07:14:51;;;;;;;1.92;0.55;;;;;;;;;;5114069;28;20043;-82
2023/07/10 07:17:17;;;;;;;3.80;0.82;;;;;;;;;;5115473;28;20176;-82
2023/07/10 07:19:46;;;;;;;2.47;0.90;;;;;;;;;;5113568;28;20044;-82
2023/07/10 07:22:12;;;;;;;3.92;0.70;;;;;;;;;;5114552;28;20039;-82
2023/07/10 07:24:38;;;;;;;2.25;0.82;;;;;;;;;;5113984;28;20058;-82
2023/07/10 07:27:04;;;;;;;2.92;0.70;;;;;;;;;;5113931;28;20044;-82
2023/07/10 07:29:30;;;;;;;2.65;0.65;;;;;;;;;;5114858;28;20050;-83
2023/07/10 07:31:56;;;;;;;3.58;0.63;;;;;;;;;;5096999;28;20050;-82
2023/07/10 07:34:23;;;;;;;2.17;0.63;;;;;;;;;;5114526;28;20485;-82
2023/07/10 07:36:51;;;;;;;4.82;0.70;;;;;;;;;;5113798;28;20040;-82
2023/07/10 07:39:20;;;;;;;2.95;0.82;;;;;;;;;;5113538;28;20401;-82
2023/07/10 07:41:46;;;;;;;2.58;0.50;;;;;;;;;;5113899;28;20141;-82
2023/07/10 07:44:13;;;;;;;2.75;0.50;;;;;;;;;;5096699;28;20047;-82
2023/07/10 07:46:39;;;;;;;2.70;0.50;;;;;;;;;;5114606;28;20134;-82
2023/07/10 07:49:05;;;;;;;3.22;0.68;;;;;;;;;;5096610;28;20075;-82
2023/07/10 07:51:31;;;;;;;2.30;0.60;;;;;;;;;;5113581;28;20507;-82
2023/07/10 07:54:05;;;;;;;2.53;0.50;;;;;;;;;;5096172;28;20070;-82
2023/07/10 07:56:31;;;;;;;2.00;0.68;;;;;;;;;;5096796;28;20047;-82
2023/07/10 07:58:57;;;;;;;4.28;0.93;;;;;;;;;;5113843;28;20075;-82
2023/07/10 08:01:24;;;;;;;3.45;0.63;;;;;;;;;;5113269;28;20503;-82
2023/07/10 08:03:50;;;;;;;2.67;0.60;;;;;;;;;;5113148;28;20058;-82
2023/07/10 08:06:16;;;;;;;4.30;1.10;;;;;;;;;;5096257;28;20047;-82
2023/07/10 08:08:42;;;;;;;3.25;0.70;;;;;;;;;;5112803;28;20481;-82
2023/07/10 08:11:08;;;;;;;5.07;1.35;;;;;;;;;;5113314;28;20051;-83
2023/07/10 08:13:34;;;;;;;5.22;2.13;;;;;;;;;;5113055;28;20046;-83
2023/07/10 08:16:00;;;;;;;4.60;1.40;;;;;;;;;;5112268;28;20100;-83
2023/07/10 08:18:26;;;;;;;2.53;0.80;;;;;;;;;;5113497;28;20171;-83
2023/07/10 08:21:00;;;;;;;3.97;1.48;;;;;;;;;;5112862;28;20132;-84
2023/07/10 08:23:26;;;;;;;6.65;1.65;;;;;;;;;;5113686;28;20047;-83
2023/07/10 08:25:52;;;;;;;3.50;1.67;;;;;;;;;;5113066;28;20039;-84
2023/07/10 08:28:18;;;;;;;3.38;1.25;;;;;;;;;;5095816;28;20043;-84
2023/07/10 08:30:44;;;;;;;3.42;0.95;;;;;;;;;;5112827;28;20451;-84
2023/07/10 08:33:11;;;;;;;3.20;0.90;;;;;;;;;;5113101;28;20047;-84
2023/07/10 08:35:37;;;;;;;5.82;1.25;;;;;;;;;;5114393;28;20043;-83
2023/07/10 08:38:03;;;;;;;4.90;2.42;;;;;;;;;;5107305;28;20083;-84
2023/07/10 08:40:33;;;;;;;3.80;1.92;;;;;;;;;;5105887;28;20047;-84
2023/07/10 08:43:01;;;;;;;3.40;1.23;;;;;;;;;;5104194;28;20072;-83
2023/07/10 08:45:32;;;;;;;2.85;1.02;;;;;;;;;;5100693;28;20105;-84
2023/07/10 08:48:05;;;;;;;3.85;1.50;;;;;;;;;;5112686;28;20472;-84
2023/07/10 08:50:32;;;;;;;4.05;1.05;;;;;;;;;;5098002;28;20092;-84
2023/07/10 08:52:58;;;;;;;3.47;0.80;;;;;;;;;;5075357;28;20058;-85
2023/07/10 08:55:27;;;;;;;3.45;0.98;;;;;;;;;;5112846;28;20052;-84
2023/07/10 08:57:56;;;;;;;4.20;0.88;;;;;;;;;;5114095;28;20143;-85
2023/07/10 09:00:22;;;;;;;4.80;1.20;;;;;;;;;;5113574;28;20054;-85
2023/07/10 09:03:07;;;;;;;4.63;0.80;;;;;;;;;;5081074;28;20405;-84
2023/07/10 09:05:35;;;;;;;3.40;0.80;;;;;;;;;;5085309;28;20114;-86
2023/07/10 09:08:10;;;;;;;2.88;0.55;;;;;;;;;;5098321;28;20389;-85
2023/07/10 09:10:45;;;;;;;5.07;0.68;;;;;;;;;;5100016;28;20067;-85
2023/07/10 09:13:17;;;;;;;3.70;0.93;;;;;;;;;;5098151;28;20051;-85
2023/07/10 09:15:49;;;;;;;4.93;0.85;;;;;;;;;;5110115;28;20058;-85
2023/07/10 09:18:21;;;;;;;3.95;0.60;;;;;;;;;;5098202;28;20190;-85
2023/07/10 09:20:50;;;;;;;3.35;0.60;;;;;;;;;;5098274;28;20051;-87
2023/07/10 09:23:45;;;;;;;2.75;0.45;;;;;;;;;;5098639;28;20066;-87
2023/07/10 09:26:12;;;;;;;3.05;0.55;;;;;;;;;;5095014;28;20056;-87
2023/07/10 09:28:39;;;;;;;4.45;0.73;;;;;;;;;;5099266;28;20056;-87
2023/07/10 09:31:08;;;;;;;5.38;0.45;;;;;;;;;;5099629;28;20404;-87
2023/07/10 09:33:41;;;;;;;3.83;0.57;;;;;;;;;;5098610;28;20044;-85
2023/07/10 09:36:15;;;;;;;2.47;0.40;;;;;;;;;;5098462;28;20040;-86
2023/07/10 09:38:45;;;;;;;4.85;0.40;;;;;;;;;;5109393;28;20389;-87
2023/07/10 09:41:19;;;;;;;2.75;0.50;;;;;;;;;;5100604;28;20484;-86
2023/07/10 09:43:45;;;;;;;;;;;;;;;;;;5098470;28;20077;-87
2023/07/10 09:46:11;;;;;;;4.43;0.82;;;;;;;;;;5098072;28;20007;-86
2023/07/10 09:48:38;;;;;;;3.70;0.50;;;;;;;;;;5098883;28;20044;-86
2023/07/10 09:51:06;;;;;;;3.53;0.77;;;;;;;;;;5098880;28;20083;-86
2023/07/10 09:53:35;;;;;;;4.32;0.75;;;;;;;;;;5097915;28;20177;-86
2023/07/10 09:56:01;;;;;;;4.35;0.65;;;;;;;;;;5080840;28;20043;-86
2023/07/10 09:58:27;;;;;;;4.45;0.60;;;;;;;;;;5097382;28;20047;-85
2023/07/10 10:00:53;;;;;;;2.55;0.50;;;;;;;;;;5068827;28;20496;-85
2023/07/10 10:03:46;;;;;;;3.92;0.57;;;;;;;;;;5115913;28;20056;-85
2023/07/10 10:06:20;;;;;;;3.22;0.70;;;;;;;;;;5111971;28;20152;-87
2023/07/10 10:08:47;;;;;;;2.92;0.50;;;;;;;;;;5111448;28;20069;-87
2023/07/10 10:11:13;;;;;;;5.68;0.90;;;;;;;;;;5102697;28;20039;-86
2023/07/10 10:13:44;;;;;;;4.47;0.70;;;;;;;;;;5113353;28;20096;-86
2023/07/10 10:16:29;;;;;;;3.25;0.80;;;;;;;;;;5115935;28;20096;-86
2023/07/10 10:19:04;;;;;;;3.05;0.60;;;;;;;;;;5116000;28;20061;-86
2023/07/10 10:21:34;;;;;;;4.93;0.68;;;;;;;;;;5116184;28;20101;-87
2023/07/10 10:24:05;;;;;;;4.18;0.52;;;;;;;;;;5114373;28;20116;-87
2023/07/10 10:26:31;;;;;;;3.80;0.50;;;;;;;;;;5099639;28;20103;-86
2023/07/10 10:28:57;;;;;;;4.32;0.98;;;;;;;;;;5098874;28;20133;-88
2023/07/10 10:31:26;;;;;;;2.95;0.68;;;;;;;;;;5116242;28;20134;-87
2023/07/10 10:33:56;;;;;;;3.65;0.60;;;;;;;;;;5108194;28;20388;-86
2023/07/10 10:36:22;;;;;;;2.58;0.40;;;;;;;;;;5113433;28;20538;-87
2023/07/10 10:38:54;;;;;;;4.30;0.50;;;;;;;;;;5103772;28;20111;-87
2023/07/10 10:41:22;;;;;;;3.47;0.65;;;;;;;;;;5098832;28;20057;-88
2023/07/10 10:43:51;;;;;;;2.42;0.63;;;;;;;;;;5099173;28;20044;-87
2023/07/10 10:46:40;;;;;;;1.98;0.40;;;;;;;;;;5115154;28;20052;-87
2023/07/10 10:49:26;;;;;;;3.47;0.50;;;;;;;;;;5114021;28;20073;-87
2023/07/10 10:52:01;;;;;;;5.97;0.55;;;;;;;;;;5097584;28;20047;-88
2023/07/10 10:54:34;;;;;;;2.63;0.50;;;;;;;;;;5098212;28;20047;-87
2023/07/10 10:57:20;;;;;;;1.98;0.60;;;;;;;;;;5097171;28;20130;-87
2023/07/10 11:00:01;;;;;;;3.40;0.50;;;;;;;;;;5114431;28;20556;-86
2023/07/10 11:02:36;;;;;;;2.80;0.50;;;;;;;;;;5111275;28;20056;-87
2023/07/10 11:05:09;;;;;;;4.03;0.65;;;;;;;;;;5108995;27;20517;-87
2023/07/10 11:07:38;;;;;;;3.87;0.77;;;;;;;;;;5100084;28;20048;-87
2023/07/10 11:10:11;;;;;;;2.97;0.50;;;;;;;;;;5093743;28;20501;-86
2023/07/10 11:12:37;;;;;;;3.95;0.60;;;;;;;;;;5094456;28;20044;-86
2023/07/10 11:15:12;;;;;;;5.13;0.70;;;;;;;;;;5095039;28;20182;-86
2023/07/10 11:17:38;;;;;;;4.25;0.68;;;;;;;;;;5095098;28;20063;-86
2023/07/10 11:20:05;;;;;;;3.60;0.68;;;;;;;;;;5076824;28;20496;-86
2023/07/10 11:22:31;;;;;;;5.28;0.77;;;;;;;;;;5113696;28;20058;-86
2023/07/10 11:24:59;;;;;;;4.18;0.60;;;;;;;;;;5101537;28;20062;-86
2023/07/10 11:27:28;;;;;;;2.45;0.40;;;;;;;;;;5110153;28;20448;-86
2023/07/10 11:29:58;;;;;;;2.60;0.47;;;;;;;;;;5113712;28;20561;-86
2023/07/10 11:32:26;;;;;;;4.53;0.60;;;;;;;;;;5114158;28;20047;-86
2023/07/10 11:34:52;;;;;;;4.60;0.60;;;;;;;;;;5114031;28;20052;-86
2023/07/10 11:37:35;;;;;;;4.93;0.63;;;;;;;;;;5113536;28;20485;-86
2023/07/10 11:40:20;;;;;;;5.63;0.40;;;;;;;;;;5114415;28;20050;-86
2023/07/10 11:42:46;;;;;;;5.10;0.85;;;;;;;;;;5097154;28;20054;-86
2023/07/10 11:45:13;;;;;;;2.03;0.40;;;;;;;;;;5113818;28;20504;-85
2023/07/10 11:47:43;;;;;;;2.45;0.47;;;;;;;;;;5113850;28;20051;-86
2023/07/10 11:50:36;;;;;;;2.95;0.50;;;;;;;;;;5114060;28;20062;-85
2023/07/10 11:53:06;;;;;;;2.10;0.55;;;;;;;;;;5109840;28;20051;-86
2023/07/10 11:55:41;;;;;;;3.10;0.40;;;;;;;;;;5114414;28;20043;-86
2023/07/10 11:58:22;;;;;;;2.53;0.50;;;;;;;;;;5113818;28;20561;-87
2023/07/10 12:00:48;;;;;;;3.92;0.63;;;;;;;;;;5097093;28;20397;-86
2023/07/10 12:03:14;;;;;;;3.75;0.45;;;;;;;;;;5113462;28;20130;-87
2023/07/10 12:05:40;;;;;;;4.18;0.50;;;;;;;;;;5113593;28;20488;-86
2023/07/10 12:08:14;;;;;;;4.03;0.60;;;;;;;;;;5113655;28;20050;-86
2023/07/10 12:10:45;;;;;;;4.57;0.77;;;;;;;;;;5114081;28;20090;-86
2023/07/10 12:13:20;;;;;;;3.03;0.50;;;;;;;;;;5097074;28;20062;-86
2023/07/10 12:15:48;;;;;;;3.83;0.40;;;;;;;;;;5097091;28;20047;-87
2023/07/10 12:18:34;;;;;;;2.95;0.40;;;;;;;;;;5113537;28;20048;-87
2023/07/10 12:21:02;;;;;;;4.82;0.63;;;;;;;;;;5113516;28;20055;-86
2023/07/10 12:23:28;;;;;;;2.55;0.68;;;;;;;;;;5113249;28;20047;-87
2023/07/10 12:25:55;;;;;;;2.75;0.70;;;;;;;;;;5113758;28;20097;-87
2023/07/10 12:28:26;;;;;;;2.28;0.40;;;;;;;;;;5113508;28;20058;-87
2023/07/10 12:30:59;;;;;;;3.60;0.60;;;;;;;;;;5096679;28;20044;-86
2023/07/10 12:33:30;;;;;;;1.85;0.40;;;;;;;;;;5096876;28;20487;-87
2023/07/10 12:36:00;;;;;;;3.17;0.40;;;;;;;;;;5113273;28;20148;-87
2023/07/10 12:38:27;;;;;;;2.35;0.35;;;;;;;;;;5096186;28;20047;-87
2023/07/10 12:40:53;;;;;;;3.90;0.30;;;;;;;;;;5113480;28;20071;-87
2023/07/10 12:43:24;;;;;;;30.27;10.23;;;;;;;;;;5115448;28;20116;-87
2023/07/10 12:45:57;;;;;;;5.60;1.55;;;;;;;;;;5113340;28;20401;-87
2023/07/10 12:48:24;;;;;;;4.38;1.13;;;;;;;;;;5096917;28;20050;-87
2023/07/10 12:50:56;;;;;;;3.13;0.43;;;;;;;;;;5097114;28;20051;-87
2023/07/10 12:53:27;;;;;;;3.20;0.40;;;;;;;;;;5113204;28;20092;-87
2023/07/10 12:55:54;;;;;;;7.95;2.15;;;;;;;;;;5113881;28;20507;-87
2023/07/10 12:58:21;;;;;;;2.53;0.50;;;;;;;;;;5114337;28;20126;-86
2023/07/10 13:01:17;;;;;;;3.45;0.47;;;;;;;;;;5096621;28;20481;-86
2023/07/10 13:03:43;;;;;;;3.13;0.40;;;;;;;;;;5114737;28;20060;-87
2023/07/10 13:06:09;;;;;;;13.93;1.60;;;;;;;;;;5096929;28;20139;-87
2023/07/10 13:08:37;;;;;;;3.88;0.93;;;;;;;;;;5113551;28;20097;-86
2023/07/10 13:11:03;;;;;;;1.98;0.20;;;;;;;;;;5115009;28;20455;-87
2023/07/10 13:13:32;;;;;;;11.40;0.50;;;;;;;;;;5114063;28;20081;-86
2023/07/10 13:15:59;;;;;;;3.08;0.20;;;;;;;;;;5113867;28;20047;-87
2023/07/10 13:18:30;;;;;;;2.47;1.05;;;;;;;;;;5116631;28;20047;-87
2023/07/10 13:20:56;;;;;;;3.10;0.40;;;;;;;;;;5096831;28;20088;-87
2023/07/10 13:23:22;;;;;;;1.35;0.32;;;;;;;;;;5096398;28;20067;-86
2023/07/10 13:25:48;;;;;;;1.00;0.20;;;;;;;;;;5113285;28;20040;-86
2023/07/10 13:28:14;;;;;;;3.13;0.20;;;;;;;;;;5113250;28;20463;-87
2023/07/10 13:30:40;;;;;;;1.33;0.20;;;;;;;;;;5112965;28;20400;-86
2023/07/10 13:33:18;;;;;;;1.35;0.20;;;;;;;;;;5114501;28;20048;-87
2023/07/10 13:35:45;;;;;;;1.50;0.22;;;;;;;;;;5113464;28;20043;-87
2023/07/10 13:38:12;;;;;;;1.92;0.40;;;;;;;;;;5112814;28;20059;-87
2023/07/10 13:40:38;;;;;;;1.25;0.20;;;;;;;;;;5112754;28;20374;-87
2023/07/10 13:43:13;;;;;;;0.93;0.20;;;;;;;;;;5112869;28;20096;-87
2023/07/10 13:45:39;;;;;;;1.02;0.32;;;;;;;;;;5114031;28;20039;-87
2023/07/10 13:48:15;;;;;;;2.45;0.30;;;;;;;;;;5116315;28;20485;-88
2023/07/10 13:50:42;;;;;;;2.60;0.40;;;;;;;;;;5099727;28;20432;-87
2023/07/10 13:53:16;;;;;;;2.20;0.30;;;;;;;;;;5116444;28;20047;-87
2023/07/10 13:55:42;;;;;;;1.10;0.20;;;;;;;;;;5099887;28;20047;-87
2023/07/10 13:58:16;;;;;;;3.15;0.30;;;;;;;;;;5099815;28;20070;-87
2023/07/10 14:00:42;;;;;;;2.28;0.50;;;;;;;;;;5116478;28;20051;-87
2023/07/10 14:03:12;;;;;;;0.82;0.10;;;;;;;;;;5099057;28;20051;-87
2023/07/10 14:05:38;;;;;;;0.90;0.10;;;;;;;;;;5116721;28;20069;-86
2023/07/10 14:08:17;;;;;;;1.63;0.20;;;;;;;;;;5116547;28;20515;-87
2023/07/10 14:10:43;;;;;;;2.15;0.30;;;;;;;;;;5116331;28;20088;-87
2023/07/10 14:13:10;;;;;;;1.92;0.20;;;;;;;;;;5116709;28;20055;-88
2023/07/10 14:15:39;;;;;;;2.47;0.40;;;;;;;;;;5115851;28;20093;-87
2023/07/10 14:18:15;;;;;;;1.02;0.30;;;;;;;;;;5115946;28;20172;-87
2023/07/10 14:20:42;;;;;;;1.30;0.20;;;;;;;;;;5116297;28;20151;-87
2023/07/10 14:23:16;;;;;;;0.80;0.20;;;;;;;;;;5098411;28;20107;-86
2023/07/10 14:25:42;;;;;;;1.48;0.20;;;;;;;;;;5115774;28;20050;-87
2023/07/10 14:28:12;;;;;;;1.10;0.13;;;;;;;;;;5116005;28;20052;-88
2023/07/10 14:30:38;;;;;;;3.10;0.20;;;;;;;;;;5115864;28;20492;-87
2023/07/10 14:33:05;;;;;;;2.35;0.22;;;;;;;;;;5114854;28;20503;-88
2023/07/10 14:35:31;;;;;;;1.83;0.28;;;;;;;;;;5081368;28;20047;-87
2023/07/10 14:37:57;;;;;;;2.13;0.30;;;;;;;;;;5081639;28;20505;-87
2023/07/10 14:40:23;;;;;;;1.20;0.20;;;;;;;;;;5098176;28;20043;-87